x

Ne Bahamas - 350 Nm Ene Of Nassau, Bahamas (41047) Wave Buoy

3:50am - Tue 28th Mar 2017 All times are UTC.

  • Sig Wave height 12.1ft
  • Swell Direction
  • Peak Period 10s
  • Average Period 7s
  • Wind
    25mph, 31mph gusts
  • Sea Temp 72°f
  • Air Temp 71°f
  • Sea Pressure 1014.6mb

More Historic Weather Station data

Upgrade to MSW Pro to gain access to the past 30 days of data for over 8000 Wavebouys and Weather Stations around the globe.

Join Pro

Comparision Forecast

View Surf forecast
   
Tue 03/28 3:50am 12ft 10s 7s 25 31 mph 1014.6mb 72f 71f
3:40am  -   -   -  25 31 mph 1014.6mb 72f 70f
3:30am  -   -   -  25 31 mph 1014.8mb 72f 70f
3:20am  -   -   -  25 29 mph 1014.9mb 72f 70f
3:10am  -   -   -  25 29 mph 1014.9mb 72f 70f
3:00am  -   -   -  22 29 mph 1014.9mb 72f 70f
2:50am 13ft 10s 7s 25 29 mph 1015mb 72f 70f
2:40am 13ft  -  7s 25 29 mph 1015mb 72f 69f
2:30am  -   -   -  25 31 mph 1015mb 72f 70f
2:20am  -   -   -  27 31 mph 1015mb 72f 70f
2:10am  -   -   -  27 34 mph 1014.9mb 72f 70f
2:00am  -   -   -  27 34 mph 1014.9mb 72f 69f
1:50am 12ft 10s 7s 25 34 mph 1014.9mb 72f 69f
1:40am 12ft  -  7s 22 29 mph 1015mb 72f 69f
1:30am  -   -   -  25 34 mph 1014.9mb 72f 69f
1:20am  -   -   -  25 31 mph 1014.9mb 72f 69f
1:10am  -   -   -  25 34 mph 1014.9mb 72f 69f
1:00am  -   -   -  25 34 mph 1014.9mb 72f -
12:50am 11ft 9s 7s 27 31 mph 1014.8mb 72f 67f
12:40am  -   -   -  29 36 mph 1014.8mb 72f 69f
12:30am  -   -   -  27 36 mph 1014.5mb 72f 70f
12:20am  -   -   -  29 34 mph 1014.3mb 72f 70f
12:10am  -   -   -  27 34 mph 1014.1mb 72f 70f
12:00am  -   -   -  25 34 mph 1014.3mb 72f 70f
Mon 03/27 11:50pm 12.5ft 10s 7s 27 31 mph 1014.1mb 72f 70f
11:40pm 12.5ft  -  7s 27 34 mph 1014.1mb 72f 70f
11:30pm  -   -   -  27 34 mph 1014mb 72f 70f
11:20pm  -   -   -  27 34 mph 1014mb 72f 70f
11:10pm  -   -   -  25 31 mph 1013.9mb 72f 71f
11:00pm  -   -   -  27 34 mph 1013.8mb 72f 71f
10:50pm 12.5ft 10s 7s 27 34 mph 1013.8mb 72f 71f
10:40pm  -   -   -  27 31 mph 1013.8mb 72f 71f
10:30pm  -   -   -  27 34 mph 1013.6mb 72f 70f
10:20pm  -   -   -  27 34 mph 1013.5mb 72f 70f
10:10pm  -   -   -  27 34 mph 1013.5mb 72f 70f
10:00pm  -   -   -  27 34 mph 1013.5mb - 70f
9:50pm 14ft 10s 7s 27 34 mph 1013.5mb 72f 70f
9:40pm 14ft  -  7s 27 34 mph 1013.5mb 72f 70f
9:30pm  -   -   -  27 36 mph 1013.6mb 72f 70f
9:20pm  -   -   -  27 36 mph 1013.6mb 72f 70f
9:10pm  -   -   -  27 34 mph 1013.6mb 72f 69f
9:00pm  -   -   -  27 31 mph 1013.5mb 72f 69f
8:50pm 14ft 10s 8s 27 34 mph 1013.9mb 72f 69f
8:40pm  -   -   -  27 31 mph 1013.9mb 72f 69f
8:30pm  -   -   -  25 31 mph 1013.9mb 72f 69f
8:20pm  -   -   -  27 31 mph 1014mb 72f 69f
8:10pm  -   -   -  25 34 mph 1013.9mb 72f 70f
8:00pm  -   -   -  27 31 mph 1013.9mb 72f 70f
7:50pm 15.5ft 10s 8s 25 31 mph 1013.9mb 72f 70f
7:40pm 15.5ft  -  8s 27 34 mph 1013.9mb 72f 70f
7:30pm  -   -   -  27 31 mph 1014mb 72f 70f
7:20pm  -   -   -  27 34 mph 1014mb 72f 70f
7:10pm  -   -   -  27 34 mph 1014mb 72f 70f
7:00pm  -   -   -  27 31 mph 1014mb 72f 69f
6:50pm 12ft 10s 7s 27 31 mph 1014.1mb 72f 70f
6:40pm 12ft  -  7s 27 34 mph 1014.3mb 72f 70f
6:30pm  -   -   -  25 31 mph 1014.3mb 72f 71f
6:20pm  -   -   -  25 29 mph 1014.3mb 72f 71f
6:10pm  -   -   -  25 34 mph 1014.4mb 72f 70f
6:00pm  -   -   -  27 34 mph 1014.5mb 72f 70f
5:50pm 13ft 10s 7s 27 36 mph 1014.6mb 72f 71f
5:40pm 13ft  -  7s 27 34 mph 1014.8mb 72f 71f
5:30pm  -   -   -  27 34 mph 1014.8mb 72f 71f
5:20pm  -   -   -  25 31 mph 1014.9mb 72f 71f
5:10pm  -   -   -  25 31 mph 1014.9mb 72f 71f
5:00pm  -   -   -  25 31 mph 1015mb 72f 70f
4:50pm 13ft 10s 7s 22 29 mph 1015.4mb 72f 70f
4:40pm  -   -   -  22 29 mph 1015.5mb 72f 70f
4:30pm  -   -   -  27 34 mph 1015.8mb - 68f
4:20pm  -   -   -  29 40 mph 1016mb 72f 70f
4:10pm  -   -   -  27 36 mph 1015.9mb 72f 70f
4:00pm  -   -   -  25 31 mph 1015.9mb 72f 70f
3:50pm 14ft 11s 8s 27 31 mph 1015.9mb 72f 70f
3:40pm 14ft  -  8s 27 34 mph 1016mb 72f 71f
3:30pm  -   -   -  27 34 mph 1016mb 72f 71f
3:20pm  -   -   -  27 34 mph 1016mb 72f 71f
3:10pm  -   -   -  27 34 mph 1016mb 72f 71f
3:00pm  -   -   -  27 31 mph 1016mb 72f 71f
2:50pm 13ft 10s 7s 27 34 mph 1016mb 72f 71f
2:40pm 13ft  -  7s 25 34 mph 1016mb 72f 71f
2:30pm  -   -   -  25 34 mph 1016mb 72f 71f
2:20pm  -   -   -  25 31 mph 1015.9mb 72f 71f
2:10pm  -   -   -  25 29 mph 1015.9mb 72f 71f
2:00pm  -   -   -  25 29 mph 1015.9mb 72f 71f
1:50pm 13ft 9s 7s 25 29 mph 1015.8mb 72f 70f
1:40pm  -   -   -  25 29 mph 1015.9mb 72f -
1:30pm  -   -   -  25 29 mph 1015.9mb 72f 71f
1:20pm  -   -   -  25 31 mph 1015.8mb 72f 71f
1:10pm  -   -   -  25 31 mph 1015.8mb 72f 71f
1:00pm  -   -   -  27 31 mph 1015.8mb 72f 71f
12:50pm 14ft 10s 8s 27 36 mph 1015.6mb 72f 71f
12:40pm 14ft  -  8s 29 36 mph 1015.8mb 72f 71f
12:30pm  -   -   -  29 38 mph 1015.8mb 72f 71f
12:20pm  -   -   -  27 34 mph 1015.8mb 72f 71f
12:10pm  -   -   -  25 31 mph 1015.8mb 72f 71f
12:00pm  -   -   -  25 31 mph 1015.8mb 72f 70f
11:50am 13.5ft 10s 7s 25 31 mph 1015.8mb 72f 70f
11:40am 13.5ft  -  7s 27 34 mph 1015.5mb 72f 70f
11:30am  -   -   -  27 36 mph 1015.5mb 72f 70f
11:20am  -   -   -  29 36 mph 1015.5mb 72f 70f
11:10am  -   -   -  27 36 mph 1015.5mb 72f 70f
11:00am  -   -   -  27 36 mph 1015.3mb 72f 70f
10:50am 12ft 10s 7s 27 34 mph 1015.3mb 72f 71f
10:40am 12ft  -  7s 27 36 mph 1015mb 72f 71f
10:30am  -   -   -  25 31 mph 1015mb 72f 71f
10:20am  -   -   -  27 34 mph 1015mb 72f 71f
10:10am  -   -   -  25 31 mph 1014.9mb 72f 71f
10:00am  -   -   -  27 31 mph 1014.9mb 72f 71f
9:50am 13ft 10s 8s 25 34 mph 1014.9mb 72f 71f
9:40am 13ft  -  8s 25 29 mph 1014.9mb 72f 71f
9:30am  -   -   -  25 29 mph 1014.8mb 72f 71f
9:20am  -   -   -  25 29 mph 1014.6mb 72f 71f
9:10am  -   -   -  22 29 mph 1014.5mb 72f 71f
9:00am  -   -   -  22 29 mph 1014.5mb 72f 71f
8:50am 15ft 10s 8s 22 29 mph 1014.5mb 72f 71f
8:40am 15ft  -  8s 22 31 mph 1014.6mb 72f 71f
8:30am  -   -   -  22 29 mph 1014.6mb 72f 71f
8:20am  -   -   -  22 29 mph 1014.5mb 72f 71f
8:10am  -   -   -  22 29 mph 1014.6mb 72f 71f
8:00am  -   -   -  22 29 mph 1014.6mb 72f 71f
7:50am 12.5ft 10s 7s 22 27 mph 1014.8mb 72f 71f
7:40am 12.5ft  -  7s 22 29 mph 1014.9mb 72f 71f
7:30am  -   -   -  22 31 mph 1014.9mb 72f 71f
7:20am  -   -   -  22 29 mph 1015mb 72f 71f
7:10am  -   -   -  22 29 mph 1015mb 72f 71f
7:00am  -   -   -  25 29 mph 1015.1mb 72f 71f
6:50am 12ft 10s 7s 25 31 mph 1015.4mb 72f 71f
6:40am  -   -   -  22 31 mph 1015.5mb 72f 71f
6:30am  -   -   -  22 29 mph 1015.5mb 72f 71f
6:20am  -   -   -  25 29 mph 1015.6mb 72f 71f
6:10am  -   -   -  25 31 mph 1015.8mb 72f 71f
6:00am  -   -   -  25 29 mph 1016mb 72f 71f
5:50am 14ft 10s 8s 25 29 mph 1016mb 72f 71f
5:40am  -   -   -  22 31 mph 1016.1mb 72f 71f
5:30am  -   -   -  22 29 mph 1016.4mb 72f 71f
5:20am  -   -   -  25 29 mph 1016.5mb 72f 71f
5:10am  -   -   -  25 29 mph 1016.6mb 72f 71f
5:00am  -   -   -  25 31 mph 1016.6mb 72f 71f
4:50am 12.5ft 9s 7s 22 31 mph 1016.9mb 72f 71f
4:40am 12.5ft  -  7s 22 29 mph 1016.8mb 72f 71f
4:30am  -   -   -  22 31 mph 1017mb 72f 71f
4:20am  -   -   -  22 31 mph 1017mb 72f 71f
4:10am  -   -   -  22 31 mph 1017.1mb 72f 71f
4:00am  -   -   -  25 29 mph 1017.1mb 72f 71f
3:50am 13ft 10s 7s 22 29 mph 1017.3mb 72f 71f
3:40am  -   -   -  25 31 mph 1017.4mb 72f 70f
3:30am  -   -   -  25 29 mph 1017.5mb 72f 70f
3:20am  -   -   -  25 29 mph 1017.5mb 72f 70f
3:10am  -   -   -  22 29 mph 1017.5mb 72f 70f
3:00am  -   -   -  25 31 mph 1017.5mb 72f 70f
2:50am 13ft 10s 7s 25 29 mph 1017.6mb 72f 70f
2:40am 13ft  -  7s 25 29 mph 1017.6mb 72f 70f
2:30am  -   -   -  25 29 mph 1017.6mb 72f 69f
2:20am  -   -   -  25 31 mph 1017.8mb 72f 69f
2:10am  -   -   -  25 31 mph 1017.8mb 72f 69f
2:00am  -   -   -  25 31 mph 1017.9mb 72f 69f
1:50am 12.5ft 9s 7s 25 31 mph 1018mb 72f 69f
1:40am  -   -   -  27 34 mph 1018mb 72f 69f
1:30am  -   -   -  25 31 mph 1018mb 72f 70f
1:20am  -   -   -  25 29 mph 1018mb 72f -
1:10am  -   -   -  25 29 mph 1018mb 72f 71f
1:00am  -   -   -  22 29 mph 1017.9mb 72f -
12:50am 12ft 10s 7s 25 31 mph 1017.6mb 72f 71f
12:40am  -   -   -  25 31 mph 1017.8mb 72f 71f
12:30am  -   -   -  25 31 mph 1017.6mb 72f 71f
12:20am  -   -   -  22 29 mph 1017.5mb 72f 71f
12:10am  -   -   -  25 34 mph 1017.5mb 72f 71f
12:00am  -   -   -  25 31 mph 1017.4mb 72f 71f
Sun 03/26 11:50pm 11ft 10s 7s 25 31 mph 1017.4mb 72f 70f
11:40pm 11ft  -  7s 25 31 mph 1017.3mb 72f 70f
11:30pm  -   -   -  25 31 mph 1017.3mb 72f 70f
11:20pm  -   -   -  25 34 mph 1017.3mb 72f 71f
11:10pm  -   -   -  25 31 mph 1017.1mb 72f 70f
11:00pm  -   -   -  25 29 mph 1017.1mb 72f 70f
10:50pm 12ft 10s 7s 25 31 mph 1017.3mb 72f 70f
10:40pm 12ft  -  7s 25 31 mph 1017.1mb 72f 70f
10:30pm  -   -   -  25 31 mph 1017.1mb 72f 70f
10:20pm  -   -   -  25 31 mph 1017.3mb 72f 70f
10:10pm  -   -   -  25 31 mph 1017.1mb 72f 70f
10:00pm  -   -   -  25 31 mph 1017.1mb 72f 70f
9:50pm 11.5ft 10s 7s 25 29 mph 1017.1mb 72f 71f
9:40pm 11.5ft  -  7s 25 29 mph 1017.1mb 72f 71f
9:30pm  -   -   -  25 29 mph 1017mb 72f 71f
9:20pm  -   -   -  25 29 mph 1017mb 72f 71f
9:10pm  -   -   -  22 27 mph 1017mb 72f 71f
9:00pm  -   -   -  25 29 mph 1017mb 72f 71f
8:50pm 14ft 10s 8s 25 29 mph 1017mb 72f 71f
8:40pm 14ft  -  8s 25 29 mph 1017mb 72f 71f
8:30pm  -   -   -  22 29 mph 1016.9mb 72f 71f
8:20pm  -   -   -  22 29 mph 1016.9mb 72f 71f
8:10pm  -   -   -  22 29 mph 1016.8mb 72f 71f
8:00pm  -   -   -  22 29 mph 1016.9mb 72f 71f
7:50pm 11ft 9s 7s 22 29 mph 1016.8mb 72f 71f
7:40pm 11ft  -  7s 22 29 mph 1016.8mb 72f 71f
7:30pm  -   -   -  22 29 mph 1016.9mb 72f 71f
7:20pm  -   -   -  25 29 mph 1016.9mb 72f 71f
7:10pm  -   -   -  22 29 mph 1017mb 72f 71f
7:00pm  -   -   -  22 29 mph 1017mb 72f 71f
6:50pm 12.5ft 10s 7s 25 31 mph 1017.1mb 72f 71f
6:40pm 12.5ft  -  7s 22 29 mph 1017.4mb 72f 71f
6:30pm  -   -   -  22 29 mph 1017.5mb 72f 71f
6:20pm  -   -   -  22 29 mph 1017.5mb 72f 71f
6:10pm  -   -   -  25 29 mph 1017.6mb 72f 71f
6:00pm  -   -   -  25 29 mph 1017.8mb 72f 71f
5:50pm 13.5ft 9s 7s 25 31 mph 1017.9mb 72f 71f
5:40pm 13.5ft  -  7s 25 31 mph 1018mb 72f 71f
5:30pm  -   -   -  25 31 mph 1018mb 72f 71f
5:20pm  -   -   -  25 31 mph 1018mb 72f 71f
5:10pm  -   -   -  25 29 mph 1018.1mb 72f 71f
5:00pm  -   -   -  25 31 mph 1018.4mb 72f 71f
4:50pm 11ft 8s 7s 25 31 mph 1018.5mb - 71f
4:40pm 11ft  -  7s 25 31 mph 1018.5mb 72f 71f
4:30pm  -   -   -  27 31 mph 1018.6mb 72f 71f
4:20pm  -   -   -  25 31 mph 1018.9mb 72f 71f
4:10pm  -   -   -  25 31 mph 1019mb 72f 71f
4:00pm  -   -   -  25 31 mph 1019mb 72f 71f
3:50pm 11ft 9s 7s 25 29 mph 1019.3mb 72f 71f
3:40pm 11ft  -  7s 27 34 mph 1019.4mb 72f 71f
3:30pm  -   -   -  27 34 mph 1019.4mb 72f 71f
3:20pm  -   -   -  25 34 mph 1019.4mb 72f 71f
3:10pm  -   -   -  27 34 mph 1019.5mb 72f 70f
3:00pm  -   -   -  27 36 mph 1019.4mb 72f 70f
2:50pm 12ft 9s 7s 25 34 mph 1019.5mb 72f 69f
2:40pm 12ft  -  7s 27 34 mph 1019.6mb 72f 70f
2:30pm  -   -   -  27 34 mph 1019.8mb 72f 70f
2:20pm  -   -   -  27 31 mph 1019.6mb 72f 70f
2:10pm  -   -   -  27 34 mph 1019.5mb 72f 70f
2:00pm  -   -   -  27 36 mph 1019.5mb 72f 70f
1:50pm 11ft 9s 7s 27 34 mph 1019.5mb - 70f
1:40pm 11ft  -  7s 25 31 mph 1019.6mb 72f 70f
1:30pm  -   -   -  27 34 mph 1019.6mb 72f 70f
1:20pm  -   -   -  25 31 mph 1019.6mb 72f 70f
1:10pm  -   -   -  27 34 mph 1019.5mb 72f 70f
1:00pm  -   -   -  25 31 mph 1019.5mb 72f 70f
12:50pm 10.5ft 9s 7s 25 31 mph 1019.5mb 72f 70f
12:40pm  -   -   -  27 31 mph 1019.5mb 72f 70f
12:30pm  -   -   -  27 34 mph 1019.5mb 72f 70f
12:20pm  -   -   -  25 31 mph 1019.5mb 72f 70f
12:10pm  -   -   -  25 29 mph 1019.5mb 72f 70f
12:00pm  -   -   -  25 29 mph 1019.4mb 72f 70f
11:50am 11ft 10s 7s 25 31 mph 1019.5mb 72f 70f
11:40am 11ft  -  7s 22 29 mph 1019.3mb 72f 70f
11:30am  -   -   -  25 29 mph 1019.3mb 72f 70f
11:20am  -   -   -  22 29 mph 1019.3mb 72f 70f
11:10am  -   -   -  22 29 mph 1019.3mb 72f 70f
11:00am  -   -   -  25 31 mph 1019.1mb 72f 70f
10:50am 10ft 10s 7s 25 31 mph 1019mb 72f 70f
10:40am 10ft  -  7s 25 31 mph 1019mb 72f 70f
10:30am  -   -   -  25 29 mph 1019mb 72f 70f
10:20am  -   -   -  25 31 mph 1018.9mb 72f 70f
10:10am  -   -   -  25 31 mph 1018.8mb 72f 70f
10:00am  -   -   -  25 31 mph 1018.6mb 72f 70f
9:50am 9ft 8s 6s 25 31 mph 1018.6mb 72f 70f
9:40am 9ft  -  6s 25 31 mph 1018.5mb 72f 70f
9:30am  -   -   -  25 29 mph 1018.5mb 72f 70f
9:20am  -   -   -  25 31 mph 1018.5mb 72f 70f
9:10am  -   -   -  25 29 mph 1018.5mb 72f 70f
9:00am  -   -   -  25 31 mph 1018.5mb 72f 70f
8:50am 10ft 9s 7s 25 29 mph 1018.5mb 72f 70f
8:40am 10ft  -  7s 25 31 mph 1018.4mb 72f 70f
8:30am  -   -   -  25 31 mph 1018.5mb 72f 70f
8:20am  -   -   -  25 31 mph 1018.5mb 72f 70f
8:10am  -   -   -  25 29 mph 1018.6mb 72f 70f
8:00am  -   -   -  22 29 mph 1018.6mb 72f 70f
7:50am 9.5ft 10s 6s 25 29 mph 1018.8mb 72f 70f
7:40am  -   -   -  25 29 mph 1018.6mb 72f 70f
7:30am  -   -   -  22 27 mph 1018.8mb 72f 70f
7:20am  -   -   -  22 29 mph 1018.9mb 72f 71f
7:10am  -   -   -  22 27 mph 1019mb 72f 70f
7:00am  -   -   -  20 27 mph 1019.1mb 72f 70f
6:50am 9.5ft 10s 7s 20 27 mph 1019.3mb 72f 70f
6:40am 9.5ft  -  7s 20 25 mph 1019.5mb 72f 70f
6:30am  -   -   -  20 25 mph 1019.8mb 72f 70f
6:20am  -   -   -  18 25 mph 1019.8mb 72f 70f
6:10am  -   -   -  18 25 mph 1020mb 72f 70f
6:00am  -   -   -  18 22 mph 1020.1mb 72f 69f
5:50am 10ft 9s 7s 18 25 mph 1020.4mb 72f 69f
5:40am 10ft  -  7s 20 27 mph 1020.5mb 72f 69f
5:30am  -   -   -  20 27 mph 1020.5mb 72f 70f
5:20am  -   -   -  20 25 mph 1020.8mb 72f 70f
5:10am  -   -   -  18 25 mph 1020.9mb 72f 70f
5:00am  -   -   -  18 25 mph 1021mb 72f 70f
4:50am 9ft 8s 7s 20 27 mph 1021mb 72f 69f
4:40am  -   -   -  22 29 mph 1021.1mb 72f 70f
4:30am  -   -   -  16 25 mph 1021.1mb 72f 70f
4:20am  -   -   -  18 27 mph 1021.1mb 72f 70f
4:10am  -   -   -  18 22 mph 1021.3mb 72f 70f
4:00am  -   -   -  20 25 mph 1021.5mb 72f 70f
3:50am 9.5ft 10s 7s 20 27 mph 1021.5mb 72f 71f
3:40am 9.5ft  -  7s 18 22 mph 1021.6mb 72f 71f
3:30am  -   -   -  18 20 mph 1021.6mb 72f 71f
3:20am  -   -   -  18 22 mph 1021.6mb 72f 71f
3:10am  -   -   -  20 25 mph 1021.6mb 72f 71f
3:00am  -   -   -  20 25 mph 1021.6mb 72f 71f
2:50am 10ft 10s 7s 20 25 mph 1021.6mb 72f 71f
2:40am  -   -   -  20 25 mph 1021.6mb 72f 71f
2:30am  -   -   -  20 27 mph 1021.6mb 72f 71f
2:20am  -   -   -  20 25 mph 1021.6mb 72f 71f
2:10am  -   -   -  20 25 mph 1021.5mb 72f 71f
2:00am  -   -   -  20 25 mph 1021.5mb 72f 71f
1:50am 10ft 9s 7s 20 27 mph 1021.5mb 72f 71f
1:40am  -   -   -  20 27 mph 1021.5mb 72f 71f
1:30am  -   -   -  20 27 mph 1021.5mb 72f 71f
1:20am  -   -   -  20 27 mph 1021.5mb 72f 71f
1:10am  -   -   -  20 27 mph 1021.5mb 72f 71f
1:00am  -   -   -  20 27 mph 1021.5mb 72f 71f
12:50am 10.5ft 10s 7s 22 29 mph 1022.5mb - 71f
12:40am 10.5ft  -  7s 20 27 mph 1021.6mb 72f 71f
12:30am  -   -   -  22 29 mph 1021.5mb 72f 70f
12:20am  -   -   -  22 27 mph 1021.5mb 72f 70f
12:10am  -   -   -  22 29 mph 1021.5mb 72f 70f
12:00am  -   -   -  25 29 mph 1021.4mb 72f 70f
Sat 03/25 11:50pm 10ft 10s 7s 22 31 mph 1021.4mb 72f 70f
11:40pm 10ft  -  7s 25 29 mph 1021.4mb 72f 70f
11:30pm  -   -   -  22 29 mph 1021.4mb 72f 71f
11:20pm  -   -   -  22 29 mph 1021.4mb 72f 71f
11:10pm  -   -   -  22 29 mph 1021.4mb 72f 71f
11:00pm  -   -   -  22 29 mph 1021.5mb 72f 71f
10:50pm 11ft 9s 7s 22 27 mph 1021.5mb 72f 70f
10:40pm  -   -   -  22 27 mph 1021.5mb 72f 70f
10:30pm  -   -   -  22 27 mph 1021.5mb 72f 70f
10:20pm  -   -   -  22 29 mph 1021.5mb 72f 70f
10:10pm  -   -   -  22 27 mph 1021.6mb 72f 70f
10:00pm  -   -   -  22 27 mph 1021.5mb 72f 70f
9:50pm 10ft 9s 7s 22 27 mph 1021.3mb 72f 70f
9:40pm 10ft  -  7s 22 29 mph 1021.1mb 72f 70f
9:30pm  -   -   -  22 27 mph 1021.3mb 72f 70f
9:20pm  -   -   -  22 29 mph 1021.4mb 72f 70f
9:10pm  -   -   -  22 29 mph 1021.5mb 72f 70f
9:00pm  -   -   -  22 29 mph 1021.5mb 72f 70f
8:50pm 10ft 9s 7s 22 27 mph 1021.5mb 72f 70f
8:40pm  -   -   -  22 29 mph 1021.6mb 72f 70f
8:30pm  -   -   -  22 27 mph 1021.8mb 72f 70f
8:20pm  -   -   -  22 29 mph 1022mb 72f 70f
8:10pm  -   -   -  22 29 mph 1022mb 72f 70f
8:00pm  -   -   -  22 27 mph 1021.8mb 72f 70f
7:50pm 10ft 9s 7s 25 29 mph 1021.6mb 72f 70f
7:40pm  -   -   -  22 29 mph 1021.8mb 72f 70f
7:30pm  -   -   -  22 29 mph 1022mb 72f 70f
7:20pm  -   -   -  25 29 mph 1021.9mb 72f 70f
7:10pm  -   -   -  25 29 mph 1022mb 72f 70f
7:00pm  -   -   -  25 31 mph 1022.5mb 72f 70f
6:50pm 10ft 8s 6s 25 29 mph 1022.5mb 72f 70f
6:40pm 10ft  -  6s 22 29 mph 1022.8mb 72f 70f
6:30pm  -   -   -  22 29 mph 1023mb 72f 69f
6:20pm  -   -   -  25 29 mph 1023.3mb 72f 69f
6:10pm  -   -   -  25 31 mph 1023.4mb 72f 69f
6:00pm  -   -   -  25 31 mph 1023.5mb 72f 69f
5:50pm 10ft 9s 7s 22 29 mph 1023.5mb 72f 69f
5:40pm 10ft  -  7s 25 31 mph 1023.6mb 72f 69f
5:30pm  -   -   -  25 31 mph 1023.9mb 72f 69f
5:20pm  -   -   -  25 29 mph 1024mb 72f 69f
5:10pm  -   -   -  25 29 mph 1024.2mb 72f 69f
5:00pm  -   -   -  25 31 mph 1024.3mb 72f 69f
4:50pm 9.5ft 10s 6s 22 29 mph 1024.7mb 72f 69f
4:40pm 9.5ft  -  6s 25 31 mph 1024.8mb 72f 70f
4:30pm  -   -   -  25 29 mph 1024.8mb 72f 70f
4:20pm  -   -   -  25 31 mph 1025mb 72f 70f
4:10pm  -   -   -  25 29 mph 1025mb 72f 70f
4:00pm  -   -   -  25 29 mph 1025mb 72f 70f
3:50pm 10ft 9s 7s 25 29 mph 1025.2mb 72f 70f
3:40pm 10ft  -  7s 25 29 mph 1025.2mb 72f 70f
3:30pm  -   -   -  25 29 mph 1025.2mb 72f 70f
3:20pm  -   -   -  22 31 mph 1025mb 72f 70f
3:10pm  -   -   -  25 29 mph 1025mb 72f 70f
3:00pm  -   -   -  25 31 mph 1025mb 72f 70f
2:50pm 10ft 9s 6s 25 31 mph 1025mb 72f 70f
2:40pm  -   -   -  25 29 mph 1025.2mb 72f 70f
2:30pm  -   -   -  25 31 mph 1025.3mb 72f 70f
2:20pm  -   -   -  25 29 mph 1025.3mb 72f 70f
2:10pm  -   -   -  22 29 mph 1025.3mb 72f 70f
2:00pm  -   -   -  25 31 mph 1025.5mb 72f 70f
1:50pm 10ft 9s 7s 22 29 mph 1025.5mb 72f 70f
1:40pm  -   -   -  25 29 mph 1025.3mb 72f 70f
1:30pm  -   -   -  25 29 mph 1025.3mb 72f 70f
1:20pm  -   -   -  25 31 mph 1025.3mb 72f 70f
1:10pm  -   -   -  25 31 mph 1025.3mb 72f 70f
1:00pm  -   -   -  25 31 mph 1026mb - 70f
12:50pm 9.5ft 9s 7s 25 29 mph 1025mb 72f 70f
12:40pm 9.5ft  -  7s 25 31 mph 1024.8mb 72f 70f
12:30pm  -   -   -  22 29 mph 1024.8mb 72f 70f
12:20pm  -   -   -  25 31 mph 1024.5mb 72f 70f
12:10pm  -   -   -  25 31 mph 1024.5mb 72f 70f
12:00pm  -   -   -  25 29 mph 1024.3mb 72f 70f
11:50am 9ft 10s 6s 25 31 mph 1024.2mb 72f 70f
11:40am 9ft  -  6s 22 31 mph 1023.9mb 72f 70f
11:30am  -   -   -  22 29 mph 1023.9mb 72f 70f
11:20am  -   -   -  22 29 mph 1023.9mb 72f 69f
11:10am  -   -   -  22 27 mph 1023.8mb 72f 69f
11:00am  -   -   -  22 27 mph 1023.6mb 72f 69f
10:50am 10.5ft 9s 7s 22 27 mph 1023.6mb 72f 69f
10:40am 10.5ft  -  7s 20 29 mph 1023.5mb 72f 69f
10:30am  -   -   -  20 27 mph 1023.5mb 72f 69f
10:20am  -   -   -  22 29 mph 1023.3mb 72f 69f
10:10am  -   -   -  22 31 mph 1023.3mb 72f 70f
10:00am  -   -   -  20 27 mph 1023.3mb 72f 70f
9:50am 9ft 9s 6s 20 27 mph 1023.3mb 72f 70f
9:40am 9ft  -  6s 20 27 mph 1023.4mb 72f 69f
9:30am  -   -   -  20 29 mph 1023.3mb 72f 69f
9:20am  -   -   -  20 25 mph 1023.1mb 72f 69f
9:10am  -   -   -  22 29 mph 1023.3mb 72f 69f
9:00am  -   -   -  22 29 mph 1023mb 72f 69f
8:50am 9.5ft 9s 6s 22 27 mph 1023mb 72f 69f
8:40am 9.5ft  -  6s 22 27 mph 1023mb 72f 70f
8:30am  -   -   -  22 27 mph 1023mb 72f 70f
8:20am  -   -   -  22 27 mph 1023mb 72f 70f
8:10am  -   -   -  18 25 mph 1023.1mb 72f 69f
8:00am  -   -   -  20 25 mph 1023.5mb 72f 69f
7:50am 9.5ft 8s 6s 20 29 mph 1023.6mb 72f 69f
7:40am 9.5ft  -  6s 20 27 mph 1023.8mb 72f 69f
7:30am  -   -   -  22 27 mph 1023.9mb 72f 69f
7:20am  -   -   -  27 34 mph 1023.9mb 72f 69f
7:10am  -   -   -  25 29 mph 1023.8mb 72f 69f
7:00am  -   -   -  25 31 mph 1023.9mb - 69f
6:50am 10.5ft 8s 7s 25 29 mph 1023.9mb 72f 69f
6:40am 10.5ft  -  7s 27 31 mph 1023.8mb 72f 69f
6:30am  -   -   -  25 31 mph 1023.9mb 72f 69f
6:20am  -   -   -  27 31 mph 1024mb 72f 69f
6:10am  -   -   -  25 31 mph 1024.2mb 72f 69f
6:00am  -   -   -  27 31 mph 1024.3mb 72f 69f
5:50am 10ft 9s 6s 27 34 mph 1024.5mb 72f 69f
5:40am 10ft  -  6s 27 31 mph 1024.7mb 72f 69f
5:30am  -   -   -  25 34 mph 1024.8mb 72f 69f
5:20am  -   -   -  25 31 mph 1025mb 72f 69f
5:10am  -   -   -  27 31 mph 1025mb 72f 69f
5:00am  -   -   -  25 31 mph 1025.3mb 72f 69f
4:50am 10.5ft 9s 7s 22 29 mph 1025.5mb 72f 69f
4:40am 10.5ft  -  7s 25 29 mph 1025.5mb 72f 69f
4:30am  -   -   -  25 34 mph 1025.7mb 72f 69f
4:20am  -   -   -  27 34 mph 1025.7mb 72f 69f
4:10am  -   -   -  25 31 mph 1025.8mb 72f 69f
4:00am  -   -   -  27 31 mph 1026mb 72f 69f
3:50am 10ft 8s 7s 27 34 mph 1026mb 72f 69f
3:40am 10ft  -  7s 25 31 mph 1026mb 72f 69f
3:30am  -   -   -  25 34 mph 1026.2mb 72f 69f
3:20am  -   -   -  27 34 mph 1026.2mb 72f 69f
3:10am  -   -   -  25 34 mph 1026mb 72f 69f
3:00am  -   -   -  27 31 mph 1026.2mb 72f 69f
2:50am 10.5ft 8s 6s 25 31 mph 1026.3mb 72f 69f
2:40am 10.5ft  -  6s 27 34 mph 1026.5mb 72f 69f
2:30am  -   -   -  25 34 mph 1026.7mb 72f 69f
2:20am  -   -   -  27 31 mph 1026.7mb 72f 69f
2:10am  -   -   -  27 31 mph 1026.7mb 72f 69f
2:00am  -   -   -  27 34 mph 1026.7mb - 69f
1:50am 10ft 8s 6s 25 34 mph 1026.7mb 72f 69f
1:40am 10ft  -  6s 29 34 mph 1026.5mb 72f 69f
1:30am  -   -   -  27 34 mph 1026.3mb 73f 69f
1:20am  -   -   -  27 36 mph 1026.3mb 73f 69f
1:10am  -   -   -  27 36 mph 1026.3mb 73f 68f
1:00am  -   -   -  27 34 mph 1026.3mb 72f 68f
12:50am 9.5ft 9s 6s 27 34 mph 1026.3mb 72f 68f
12:40am 9.5ft  -  6s 27 36 mph 1026mb 72f 68f
12:30am  -   -   -  27 31 mph 1026mb 73f 68f
12:20am  -   -   -  27 31 mph 1025.8mb 73f 68f
12:10am  -   -   -  27 34 mph 1025.8mb 73f 68f
12:00am  -   -   -  27 36 mph 1025.8mb 72f 68f
Fri 03/24 11:50pm 10ft 8s 7s 27 31 mph 1025.8mb 73f 68f
11:40pm 10ft  -  7s 27 31 mph 1025.8mb 73f 68f
11:30pm  -   -   -  27 34 mph 1025.5mb 73f 68f
11:20pm  -   -   -  25 34 mph 1025.7mb 73f 68f
11:10pm  -   -   -  27 34 mph 1025.7mb 73f 68f
11:00pm  -   -   -  25 31 mph 1025.5mb 73f 68f
10:50pm 10ft 9s 6s 27 36 mph 1025.5mb 73f 68f
10:40pm  -   -   -  27 31 mph 1025.2mb 73f 68f
10:30pm  -   -   -  27 34 mph 1025mb 72f 68f
10:20pm  -   -   -  27 34 mph 1025mb 73f 68f
10:10pm  -   -   -  25 31 mph 1025mb 72f 68f
10:00pm  -   -   -  27 31 mph 1025.2mb 72f 68f
9:50pm 10.5ft 8s 6s 27 34 mph 1025mb 72f 68f
9:40pm  -   -   -  27 34 mph 1025mb 72f 68f
9:30pm  -   -   -  27 34 mph 1025mb 72f 68f
9:20pm  -   -   -  27 31 mph 1025mb 72f 68f
9:10pm  -   -   -  27 34 mph 1025mb 72f 68f
9:00pm  -   -   -  27 31 mph 1025mb - 68f
8:50pm 10.5ft 9s 7s 27 31 mph 1025.2mb 72f 68f
8:40pm 10.5ft  -  7s 27 31 mph 1025.3mb 72f 68f
8:30pm  -   -   -  27 34 mph 1025.3mb 72f 68f
8:20pm  -   -   -  27 34 mph 1025.3mb 72f 68f
8:10pm  -   -   -  27 34 mph 1025.5mb 72f 68f
8:00pm  -   -   -  27 34 mph 1025.5mb 72f 68f
7:50pm 11ft 8s 6s 25 31 mph 1025.5mb 72f 68f
7:40pm  -   -   -  27 34 mph 1025.5mb 72f 68f
7:30pm  -   -   -  27 34 mph 1025.5mb - 68f
7:20pm  -   -   -  27 34 mph 1025.5mb 72f 68f
7:10pm  -   -   -  25 34 mph 1025.5mb 72f 68f
7:00pm  -   -   -  27 34 mph 1025.5mb 72f 68f
6:50pm 12ft 8s 7s 27 34 mph 1025.7mb 72f 68f
6:40pm 12ft  -  7s 27 34 mph 1025.8mb 72f 68f
6:30pm  -   -   -  27 34 mph 1025.8mb 72f 68f
6:20pm  -   -   -  27 34 mph 1026mb 72f 68f
6:10pm  -   -   -  27 34 mph 1026.3mb 72f 68f
6:00pm  -   -   -  27 34 mph 1026.5mb 72f 68f
5:50pm 10ft 8s 7s 25 31 mph 1026.8mb 72f 68f
5:40pm 10ft  -  7s 25 34 mph 1026.8mb 72f 68f
5:30pm  -   -   -  27 31 mph 1027mb 72f 68f
5:20pm  -   -   -  27 34 mph 1027.2mb 72f 68f
5:10pm  -   -   -  27 34 mph 1027.3mb 72f 68f
5:00pm  -   -   -  27 34 mph 1027.5mb 72f 68f
4:50pm 11ft 9s 7s 29 36 mph 1027.5mb 72f 68f
4:40pm 11ft  -  7s 29 34 mph 1027.5mb 72f 68f
4:30pm  -   -   -  27 36 mph 1027.5mb 72f 68f
4:20pm  -   -   -  27 34 mph 1027.7mb 72f 68f
4:10pm  -   -   -  27 36 mph 1027.7mb 72f 68f
4:00pm  -   -   -  27 34 mph 1027.8mb 72f 68f
3:50pm 12ft 8s 7s 25 31 mph 1027.8mb 72f 69f
3:40pm 12ft  -  7s 25 31 mph 1027.8mb 72f 68f
3:30pm  -   -   -  27 34 mph 1027.8mb 72f 68f
3:20pm  -   -   -  27 31 mph 1027.8mb 72f 68f
3:10pm  -   -   -  27 31 mph 1027.8mb 72f 68f
3:00pm  -   -   -  27 34 mph 1027.8mb 72f 68f
2:50pm 11.5ft 9s 7s 27 34 mph 1027.8mb 72f 68f
2:40pm 11.5ft  -  7s 25 31 mph 1027.8mb 72f 68f
2:30pm  -   -   -  27 34 mph 1027.8mb 72f 68f
2:20pm  -   -   -  27 34 mph 1027.5mb 72f 68f
2:10pm  -   -   -  27 34 mph 1027.5mb 72f 68f
2:00pm  -   -   -  27 34 mph 1027.5mb 72f 68f
1:50pm 13ft 10s 7s 29 36 mph 1027.3mb 72f 69f
1:40pm  -   -   -  27 34 mph 1027.3mb 72f 68f
1:30pm  -   -   -  27 34 mph 1027.3mb 72f 68f
1:20pm  -   -   -  27 34 mph 1027.3mb 72f 68f
1:10pm  -   -   -  27 34 mph 1027.3mb 72f 68f
1:00pm  -   -   -  27 34 mph 1027.3mb 72f 68f
12:50pm 12.5ft 9s 7s 27 34 mph 1027.2mb 72f 68f
12:40pm 12.5ft  -  7s 27 34 mph 1027.3mb 72f 68f
12:30pm  -   -   -  27 34 mph 1027.3mb 72f 68f
12:20pm  -   -   -  27 36 mph 1027.2mb 72f 68f
12:10pm  -   -   -  27 34 mph 1027mb 72f 68f
12:00pm  -   -   -  25 34 mph 1027mb 72f 68f
11:50am 13ft 10s 7s 27 34 mph 1027mb 72f 68f
11:40am  -   -   -  27 36 mph 1026.8mb 72f 68f
11:30am  -   -   -  27 36 mph 1026.8mb 72f 68f
11:20am  -   -   -  29 36 mph 1026.8mb 72f 68f
11:10am  -   -   -  29 36 mph 1026.7mb 72f 67f
11:00am  -   -   -  27 36 mph 1026.7mb 72f 68f
10:50am 13.5ft 10s 8s 27 36 mph 1026.5mb 72f 68f
10:40am  -   -   -  27 36 mph 1026.3mb 72f 68f
10:30am  -   -   -  29 36 mph 1026.3mb 72f 68f
10:20am  -   -   -  29 38 mph 1026.2mb 72f 68f
10:10am  -   -   -  27 36 mph 1026mb 72f 68f
10:00am  -   -   -  27 34 mph 1026mb 72f 68f
9:50am 12ft 10s 7s 27 34 mph 1026mb 72f 68f
9:40am 12ft  -  7s 27 36 mph 1025.8mb 72f 67f
9:30am  -   -   -  27 34 mph 1025.7mb 72f 67f
9:20am  -   -   -  27 34 mph 1025.5mb 72f 67f
9:10am  -   -   -  27 34 mph 1025.5mb 72f 68f
9:00am  -   -   -  27 34 mph 1025.5mb 72f 67f
8:50am 12ft 8s 7s 27 34 mph 1025.5mb 72f 68f
8:40am 12ft  -  7s 25 31 mph 1025.5mb 72f 68f
8:30am  -   -   -  25 31 mph 1025.3mb 72f 68f
8:20am  -   -   -  25 31 mph 1025.3mb 72f 68f
8:10am  -   -   -  25 31 mph 1025.3mb 72f 68f
8:00am  -   -   -  25 31 mph 1025.3mb 72f 68f
7:50am 12ft 10s 7s 27 31 mph 1025.3mb 72f 68f
7:40am 12ft  -  7s 27 34 mph 1025.3mb 72f 68f
7:30am  -   -   -  27 34 mph 1025.3mb 73f 68f
7:20am  -   -   -  27 34 mph 1025.3mb 72f 68f
7:10am  -   -   -  27 34 mph 1025.3mb 73f 68f
7:00am  -   -   -  27 34 mph 1025.3mb 72f 68f
6:50am 13ft 10s 7s 27 36 mph 1025.3mb 72f 68f
6:40am 13ft  -  7s 27 34 mph 1025.3mb 72f 68f
6:30am  -   -   -  27 36 mph 1025.3mb 72f 68f
6:20am  -   -   -  27 34 mph 1025.3mb 73f 68f
6:10am  -   -   -  29 36 mph 1025.3mb 72f 68f
6:00am  -   -   -  27 36 mph 1025.3mb 72f 68f
5:50am 11.5ft 11s 7s 27 34 mph 1025.5mb 73f 68f
5:40am 11.5ft  -  7s 27 31 mph 1025.5mb 73f 68f
5:30am  -   -   -  27 34 mph 1025.7mb 73f 68f
5:20am  -   -   -  27 34 mph 1025.7mb 73f 68f
5:10am  -   -   -  27 34 mph 1025.8mb 73f 68f
5:00am  -   -   -  25 31 mph 1025.8mb 73f 68f
4:50am 13.5ft 11s 8s 27 34 mph 1025.8mb 73f 68f
4:40am 13.5ft  -  8s 27 34 mph 1025.8mb 73f 67f